sensor_id;sensor_type;location;lat;lon;timestamp;temperature;humidity
31443;SHT31;18065;55.876;9.830;2023-08-17T00:02:00;25.46;47.36
31443;SHT31;18065;55.876;9.830;2023-08-17T00:04:29;25.47;47.40
31443;SHT31;18065;55.876;9.830;2023-08-17T00:06:58;25.46;47.48
31443;SHT31;18065;55.876;9.830;2023-08-17T00:09:26;25.47;47.42
31443;SHT31;18065;55.876;9.830;2023-08-17T00:11:58;25.49;47.51
31443;SHT31;18065;55.876;9.830;2023-08-17T00:14:27;25.46;47.55
31443;SHT31;18065;55.876;9.830;2023-08-17T00:16:56;25.43;47.55
31443;SHT31;18065;55.876;9.830;2023-08-17T00:19:24;25.46;47.60
31443;SHT31;18065;55.876;9.830;2023-08-17T00:21:54;25.45;47.61
31443;SHT31;18065;55.876;9.830;2023-08-17T00:24:23;25.43;47.66
31443;SHT31;18065;55.876;9.830;2023-08-17T00:26:52;25.45;47.63
31443;SHT31;18065;55.876;9.830;2023-08-17T00:29:23;25.42;47.70
31443;SHT31;18065;55.876;9.830;2023-08-17T00:31:52;25.43;47.74
31443;SHT31;18065;55.876;9.830;2023-08-17T00:34:20;25.43;47.75
31443;SHT31;18065;55.876;9.830;2023-08-17T00:36:49;25.45;47.78
31443;SHT31;18065;55.876;9.830;2023-08-17T00:39:18;25.43;47.74
31443;SHT31;18065;55.876;9.830;2023-08-17T00:41:47;25.42;47.81
31443;SHT31;18065;55.876;9.830;2023-08-17T00:44:15;25.43;47.76
31443;SHT31;18065;55.876;9.830;2023-08-17T00:46:47;25.43;47.73
31443;SHT31;18065;55.876;9.830;2023-08-17T00:49:15;25.45;47.78
31443;SHT31;18065;55.876;9.830;2023-08-17T00:51:44;25.43;47.83
31443;SHT31;18065;55.876;9.830;2023-08-17T00:54:13;25.42;47.80
31443;SHT31;18065;55.876;9.830;2023-08-17T00:56:44;25.45;47.82
31443;SHT31;18065;55.876;9.830;2023-08-17T00:59:12;25.42;47.82
31443;SHT31;18065;55.876;9.830;2023-08-17T01:01:41;25.41;47.91
31443;SHT31;18065;55.876;9.830;2023-08-17T01:04:13;25.42;47.87
31443;SHT31;18065;55.876;9.830;2023-08-17T01:06:41;25.42;47.91
31443;SHT31;18065;55.876;9.830;2023-08-17T01:09:10;25.41;47.93
31443;SHT31;18065;55.876;9.830;2023-08-17T01:11:45;25.41;47.96
31443;SHT31;18065;55.876;9.830;2023-08-17T01:14:25;25.43;47.99
31443;SHT31;18065;55.876;9.830;2023-08-17T01:17:00;25.39;47.97
31443;SHT31;18065;55.876;9.830;2023-08-17T01:19:33;25.41;48.03
31443;SHT31;18065;55.876;9.830;2023-08-17T01:22:05;25.39;48.05
31443;SHT31;18065;55.876;9.830;2023-08-17T01:24:36;25.38;48.09
31443;SHT31;18065;55.876;9.830;2023-08-17T01:27:05;25.38;48.17
31443;SHT31;18065;55.876;9.830;2023-08-17T01:29:34;25.38;48.12
31443;SHT31;18065;55.876;9.830;2023-08-17T01:32:07;25.39;48.20
31443;SHT31;18065;55.876;9.830;2023-08-17T01:34:40;25.38;48.23
31443;SHT31;18065;55.876;9.830;2023-08-17T01:37:11;25.35;48.24
31443;SHT31;18065;55.876;9.830;2023-08-17T01:39:45;25.38;48.32
31443;SHT31;18065;55.876;9.830;2023-08-17T01:42:16;25.36;48.33
31443;SHT31;18065;55.876;9.830;2023-08-17T01:44:45;25.38;48.32
31443;SHT31;18065;55.876;9.830;2023-08-17T01:47:14;25.36;48.33
31443;SHT31;18065;55.876;9.830;2023-08-17T01:49:42;25.38;48.30
31443;SHT31;18065;55.876;9.830;2023-08-17T01:52:11;25.38;48.33
31443;SHT31;18065;55.876;9.830;2023-08-17T01:54:40;25.36;48.35
31443;SHT31;18065;55.876;9.830;2023-08-17T01:57:11;25.35;48.40
31443;SHT31;18065;55.876;9.830;2023-08-17T01:59:40;25.35;48.39
31443;SHT31;18065;55.876;9.830;2023-08-17T02:02:08;25.35;48.40
31443;SHT31;18065;55.876;9.830;2023-08-17T02:04:40;25.35;48.42
31443;SHT31;18065;55.876;9.830;2023-08-17T02:07:08;25.35;48.44
31443;SHT31;18065;55.876;9.830;2023-08-17T02:09:37;25.32;48.47
31443;SHT31;18065;55.876;9.830;2023-08-17T02:12:06;25.33;48.44
31443;SHT31;18065;55.876;9.830;2023-08-17T02:14:37;25.35;48.49
31443;SHT31;18065;55.876;9.830;2023-08-17T02:17:06;25.35;48.55
31443;SHT31;18065;55.876;9.830;2023-08-17T02:19:35;25.32;48.55
31443;SHT31;18065;55.876;9.830;2023-08-17T02:22:04;25.33;48.60
31443;SHT31;18065;55.876;9.830;2023-08-17T02:24:33;25.33;48.58
31443;SHT31;18065;55.876;9.830;2023-08-17T02:27:02;25.32;48.59
31443;SHT31;18065;55.876;9.830;2023-08-17T02:29:31;25.32;48.60
31443;SHT31;18065;55.876;9.830;2023-08-17T02:32:02;25.32;48.65
31443;SHT31;18065;55.876;9.830;2023-08-17T02:34:31;25.32;48.64
31443;SHT31;18065;55.876;9.830;2023-08-17T02:37:00;25.33;48.68
31443;SHT31;18065;55.876;9.830;2023-08-17T02:39:28;25.31;48.67
31443;SHT31;18065;55.876;9.830;2023-08-17T02:41:57;25.33;48.69
31443;SHT31;18065;55.876;9.830;2023-08-17T02:44:26;25.33;48.70
31443;SHT31;18065;55.876;9.830;2023-08-17T02:46:55;25.31;48.71
31443;SHT31;18065;55.876;9.830;2023-08-17T02:49:26;25.29;48.69
31443;SHT31;18065;55.876;9.830;2023-08-17T02:51:55;25.29;48.70
31443;SHT31;18065;55.876;9.830;2023-08-17T02:54:23;25.31;48.70
31443;SHT31;18065;55.876;9.830;2023-08-17T02:56:52;25.29;48.71
31443;SHT31;18065;55.876;9.830;2023-08-17T02:59:21;25.31;48.75
31443;SHT31;18065;55.876;9.830;2023-08-17T03:01:49;25.32;48.73
31443;SHT31;18065;55.876;9.830;2023-08-17T03:04:18;25.31;48.68
31443;SHT31;18065;55.876;9.830;2023-08-17T03:06:49;25.32;48.68
31443;SHT31;18065;55.876;9.830;2023-08-17T03:09:18;25.31;48.67
31443;SHT31;18065;55.876;9.830;2023-08-17T03:11:47;25.31;48.69
31443;SHT31;18065;55.876;9.830;2023-08-17T03:14:15;25.31;48.68
31443;SHT31;18065;55.876;9.830;2023-08-17T03:16:44;25.32;48.70
31443;SHT31;18065;55.876;9.830;2023-08-17T03:19:13;25.29;48.60
31443;SHT31;18065;55.876;9.830;2023-08-17T03:21:41;25.31;48.55
31443;SHT31;18065;55.876;9.830;2023-08-17T03:24:13;25.31;48.48
31443;SHT31;18065;55.876;9.830;2023-08-17T03:26:41;25.26;48.49
31443;SHT31;18065;55.876;9.830;2023-08-17T03:29:10;25.26;48.41
31443;SHT31;18065;55.876;9.830;2023-08-17T03:31:38;25.31;48.33
31443;SHT31;18065;55.876;9.830;2023-08-17T03:34:07;25.29;48.38
31443;SHT31;18065;55.876;9.830;2023-08-17T03:36:36;25.25;48.25
31443;SHT31;18065;55.876;9.830;2023-08-17T03:39:05;25.26;48.08
31443;SHT31;18065;55.876;9.830;2023-08-17T03:41:36;25.23;48.03
31443;SHT31;18065;55.876;9.830;2023-08-17T03:44:05;25.26;47.99
31443;SHT31;18065;55.876;9.830;2023-08-17T03:46:35;25.25;47.99
31443;SHT31;18065;55.876;9.830;2023-08-17T03:49:03;25.25;47.92
31443;SHT31;18065;55.876;9.830;2023-08-17T03:51:32;25.21;47.90
31443;SHT31;18065;55.876;9.830;2023-08-17T03:54:01;25.22;47.98
31443;SHT31;18065;55.876;9.830;2023-08-17T03:56:32;25.19;47.90
31443;SHT31;18065;55.876;9.830;2023-08-17T03:59:03;25.18;47.90
31443;SHT31;18065;55.876;9.830;2023-08-17T04:01:32;25.21;47.89
31443;SHT31;18065;55.876;9.830;2023-08-17T04:04:01;25.19;47.86
31443;SHT31;18065;55.876;9.830;2023-08-17T04:06:30;25.18;47.81
31443;SHT31;18065;55.876;9.830;2023-08-17T04:08:58;25.18;47.84
31443;SHT31;18065;55.876;9.830;2023-08-17T04:11:27;25.21;47.82
31443;SHT31;18065;55.876;9.830;2023-08-17T04:13:56;25.19;47.66
31443;SHT31;18065;55.876;9.830;2023-08-17T04:16:27;25.15;47.67
31443;SHT31;18065;55.876;9.830;2023-08-17T04:18:56;25.15;47.68
31443;SHT31;18065;55.876;9.830;2023-08-17T04:21:24;25.14;47.57
31443;SHT31;18065;55.876;9.830;2023-08-17T04:23:53;25.08;47.12
31443;SHT31;18065;55.876;9.830;2023-08-17T04:26:22;25.04;46.97
31443;SHT31;18065;55.876;9.830;2023-08-17T04:28:51;25.02;46.83
31443;SHT31;18065;55.876;9.830;2023-08-17T04:31:19;25.01;46.96
31443;SHT31;18065;55.876;9.830;2023-08-17T04:33:51;24.98;46.76
31443;SHT31;18065;55.876;9.830;2023-08-17T04:36:21;24.98;46.63
31443;SHT31;18065;55.876;9.830;2023-08-17T04:38:50;24.97;46.65
31443;SHT31;18065;55.876;9.830;2023-08-17T04:41:18;24.94;46.58
31443;SHT31;18065;55.876;9.830;2023-08-17T04:43:47;24.94;46.57
31443;SHT31;18065;55.876;9.830;2023-08-17T04:46:16;24.94;46.56
31443;SHT31;18065;55.876;9.830;2023-08-17T04:48:45;24.87;46.45
31443;SHT31;18065;55.876;9.830;2023-08-17T04:51:16;24.85;46.47
31443;SHT31;18065;55.876;9.830;2023-08-17T04:53:45;24.83;46.48
31443;SHT31;18065;55.876;9.830;2023-08-17T04:56:13;24.83;46.55
31443;SHT31;18065;55.876;9.830;2023-08-17T04:58:42;24.77;46.52
31443;SHT31;18065;55.876;9.830;2023-08-17T05:01:11;24.77;46.53
31443;SHT31;18065;55.876;9.830;2023-08-17T05:03:39;24.73;46.60
31443;SHT31;18065;55.876;9.830;2023-08-17T05:06:08;24.71;46.78
31443;SHT31;18065;55.876;9.830;2023-08-17T05:08:40;24.70;46.82
31443;SHT31;18065;55.876;9.830;2023-08-17T05:11:08;24.70;46.97
31443;SHT31;18065;55.876;9.830;2023-08-17T05:13:38;24.68;46.96
31443;SHT31;18065;55.876;9.830;2023-08-17T05:16:08;24.68;46.93
31443;SHT31;18065;55.876;9.830;2023-08-17T05:18:37;24.67;46.86
31443;SHT31;18065;55.876;9.830;2023-08-17T05:21:05;24.65;46.94
31443;SHT31;18065;55.876;9.830;2023-08-17T05:23:34;24.61;46.84
31443;SHT31;18065;55.876;9.830;2023-08-17T05:26:05;24.59;46.55
31443;SHT31;18065;55.876;9.830;2023-08-17T05:28:35;24.60;46.66
31443;SHT31;18065;55.876;9.830;2023-08-17T05:31:05;24.57;46.80
31443;SHT31;18065;55.876;9.830;2023-08-17T05:33:35;24.57;46.86
31443;SHT31;18065;55.876;9.830;2023-08-17T05:36:06;24.56;47.00
31443;SHT31;18065;55.876;9.830;2023-08-17T05:38:35;24.56;47.05
31443;SHT31;18065;55.876;9.830;2023-08-17T05:41:06;24.56;47.11
31443;SHT31;18065;55.876;9.830;2023-08-17T05:43:35;24.57;46.93
31443;SHT31;18065;55.876;9.830;2023-08-17T05:46:04;24.54;46.86
31443;SHT31;18065;55.876;9.830;2023-08-17T05:48:32;24.56;46.71
31443;SHT31;18065;55.876;9.830;2023-08-17T05:51:02;24.54;46.68
31443;SHT31;18065;55.876;9.830;2023-08-17T05:53:30;24.52;46.75
31443;SHT31;18065;55.876;9.830;2023-08-17T05:55:59;24.52;46.67
31443;SHT31;18065;55.876;9.830;2023-08-17T05:58:31;24.50;46.49
31443;SHT31;18065;55.876;9.830;2023-08-17T06:01:04;24.50;46.57
31443;SHT31;18065;55.876;9.830;2023-08-17T06:03:34;24.47;46.67
31443;SHT31;18065;55.876;9.830;2023-08-17T06:06:03;24.44;46.74
31443;SHT31;18065;55.876;9.830;2023-08-17T06:08:32;24.47;46.83
31443;SHT31;18065;55.876;9.830;2023-08-17T06:11:00;24.49;46.85
31443;SHT31;18065;55.876;9.830;2023-08-17T06:13:32;24.50;46.88
31443;SHT31;18065;55.876;9.830;2023-08-17T06:16:01;24.46;46.86
31443;SHT31;18065;55.876;9.830;2023-08-17T06:18:30;24.49;46.93
31443;SHT31;18065;55.876;9.830;2023-08-17T06:20:58;24.49;46.96
31443;SHT31;18065;55.876;9.830;2023-08-17T06:23:27;24.49;46.95
31443;SHT31;18065;55.876;9.830;2023-08-17T06:25:56;24.47;46.94
31443;SHT31;18065;55.876;9.830;2023-08-17T06:28:26;24.47;46.94
31443;SHT31;18065;55.876;9.830;2023-08-17T06:30:57;24.50;46.98
31443;SHT31;18065;55.876;9.830;2023-08-17T06:33:26;24.47;47.00
31443;SHT31;18065;55.876;9.830;2023-08-17T06:35:54;24.50;47.05
31443;SHT31;18065;55.876;9.830;2023-08-17T06:38:23;24.53;47.10
31443;SHT31;18065;55.876;9.830;2023-08-17T06:40:52;24.50;47.01
31443;SHT31;18065;55.876;9.830;2023-08-17T06:43:21;24.49;47.02
31443;SHT31;18065;55.876;9.830;2023-08-17T06:45:49;24.50;47.24
31443;SHT31;18065;55.876;9.830;2023-08-17T06:48:21;24.52;47.42
31443;SHT31;18065;55.876;9.830;2023-08-17T06:50:49;24.53;47.34
31443;SHT31;18065;55.876;9.830;2023-08-17T06:53:18;24.56;47.29
31443;SHT31;18065;55.876;9.830;2023-08-17T06:55:47;24.52;47.11
31443;SHT31;18065;55.876;9.830;2023-08-17T06:58:15;24.52;47.11
31443;SHT31;18065;55.876;9.830;2023-08-17T07:00:44;24.53;47.10
31443;SHT31;18065;55.876;9.830;2023-08-17T07:03:13;24.53;46.96
31443;SHT31;18065;55.876;9.830;2023-08-17T07:05:44;24.50;46.85
31443;SHT31;18065;55.876;9.830;2023-08-17T07:08:13;24.50;46.89
31443;SHT31;18065;55.876;9.830;2023-08-17T07:10:42;24.50;46.92
31443;SHT31;18065;55.876;9.830;2023-08-17T07:13:11;24.49;46.88
31443;SHT31;18065;55.876;9.830;2023-08-17T07:15:39;24.47;46.87
31443;SHT31;18065;55.876;9.830;2023-08-17T07:18:08;24.46;46.86
31443;SHT31;18065;55.876;9.830;2023-08-17T07:20:37;24.44;46.91
31443;SHT31;18065;55.876;9.830;2023-08-17T07:23:08;24.47;47.02
31443;SHT31;18065;55.876;9.830;2023-08-17T07:25:37;24.46;47.02
31443;SHT31;18065;55.876;9.830;2023-08-17T07:28:06;24.44;47.02
31443;SHT31;18065;55.876;9.830;2023-08-17T07:30:34;24.43;46.96
31443;SHT31;18065;55.876;9.830;2023-08-17T07:33:03;24.42;47.08
31443;SHT31;18065;55.876;9.830;2023-08-17T07:35:32;24.46;47.20
31443;SHT31;18065;55.876;9.830;2023-08-17T07:38:01;24.44;47.28
31443;SHT31;18065;55.876;9.830;2023-08-17T07:40:32;24.43;47.23
31443;SHT31;18065;55.876;9.830;2023-08-17T07:43:01;24.43;47.17
31443;SHT31;18065;55.876;9.830;2023-08-17T07:45:30;24.44;47.26
31443;SHT31;18065;55.876;9.830;2023-08-17T07:47:58;24.43;47.37
31443;SHT31;18065;55.876;9.830;2023-08-17T07:50:27;24.44;47.48
31443;SHT31;18065;55.876;9.830;2023-08-17T07:52:55;24.44;47.58
31443;SHT31;18065;55.876;9.830;2023-08-17T07:55:26;24.44;47.66
31443;SHT31;18065;55.876;9.830;2023-08-17T07:57:57;24.46;47.87
31443;SHT31;18065;55.876;9.830;2023-08-17T08:00:26;24.44;47.76
31443;SHT31;18065;55.876;9.830;2023-08-17T08:02:54;24.43;47.71
31443;SHT31;18065;55.876;9.830;2023-08-17T08:05:23;24.44;47.65
31443;SHT31;18065;55.876;9.830;2023-08-17T08:07:52;24.44;47.60
31443;SHT31;18065;55.876;9.830;2023-08-17T08:10:21;24.44;47.63
31443;SHT31;18065;55.876;9.830;2023-08-17T08:12:50;24.47;47.56
31443;SHT31;18065;55.876;9.830;2023-08-17T08:15:21;24.44;47.53
31443;SHT31;18065;55.876;9.830;2023-08-17T08:17:50;24.44;47.51
31443;SHT31;18065;55.876;9.830;2023-08-17T08:20:20;24.44;47.75
31443;SHT31;18065;55.876;9.830;2023-08-17T08:22:52;24.46;47.76
31443;SHT31;18065;55.876;9.830;2023-08-17T08:25:20;24.49;47.83
31443;SHT31;18065;55.876;9.830;2023-08-17T08:27:49;24.50;47.81
31443;SHT31;18065;55.876;9.830;2023-08-17T08:30:20;24.50;47.51
31443;SHT31;18065;55.876;9.830;2023-08-17T08:32:50;24.46;47.13
31443;SHT31;18065;55.876;9.830;2023-08-17T08:35:18;24.47;47.40
31443;SHT31;18065;55.876;9.830;2023-08-17T08:37:48;24.50;47.59
31443;SHT31;18065;55.876;9.830;2023-08-17T08:40:17;24.47;47.38
31443;SHT31;18065;55.876;9.830;2023-08-17T08:42:46;24.49;47.12
31443;SHT31;18065;55.876;9.830;2023-08-17T08:45:15;24.49;46.99
31443;SHT31;18065;55.876;9.830;2023-08-17T08:47:46;24.43;46.79
31443;SHT31;18065;55.876;9.830;2023-08-17T08:50:18;24.44;47.00
31443;SHT31;18065;55.876;9.830;2023-08-17T08:52:56;24.46;47.25
31443;SHT31;18065;55.876;9.830;2023-08-17T08:55:29;24.46;47.12
31443;SHT31;18065;55.876;9.830;2023-08-17T08:57:59;24.42;46.78
31443;SHT31;18065;55.876;9.830;2023-08-17T09:00:28;24.42;46.69
31443;SHT31;18065;55.876;9.830;2023-08-17T09:03:02;24.40;46.51
31443;SHT31;18065;55.876;9.830;2023-08-17T09:05:31;24.36;46.41
31443;SHT31;18065;55.876;9.830;2023-08-17T09:08:02;24.37;46.44
31443;SHT31;18065;55.876;9.830;2023-08-17T09:10:32;24.39;46.72
31443;SHT31;18065;55.876;9.830;2023-08-17T09:13:01;24.33;46.27
31443;SHT31;18065;55.876;9.830;2023-08-17T09:15:29;24.30;46.39
31443;SHT31;18065;55.876;9.830;2023-08-17T09:18:01;24.33;46.54
31443;SHT31;18065;55.876;9.830;2023-08-17T09:20:39;24.32;46.82
31443;SHT31;18065;55.876;9.830;2023-08-17T09:23:13;24.35;47.05
31443;SHT31;18065;55.876;9.830;2023-08-17T09:25:42;24.36;46.93
31443;SHT31;18065;55.876;9.830;2023-08-17T09:28:13;24.36;46.90
31443;SHT31;18065;55.876;9.830;2023-08-17T09:30:52;24.40;47.11
31443;SHT31;18065;55.876;9.830;2023-08-17T09:33:25;24.40;47.00
31443;SHT31;18065;55.876;9.830;2023-08-17T09:35:55;24.39;46.77
31443;SHT31;18065;55.876;9.830;2023-08-17T09:38:24;24.35;46.29
31443;SHT31;18065;55.876;9.830;2023-08-17T09:40:53;24.35;46.69
31443;SHT31;18065;55.876;9.830;2023-08-17T09:43:22;24.36;46.80
31443;SHT31;18065;55.876;9.830;2023-08-17T09:45:54;24.35;46.66
31443;SHT31;18065;55.876;9.830;2023-08-17T09:48:25;24.36;46.65
31443;SHT31;18065;55.876;9.830;2023-08-17T09:50:56;24.36;46.74
31443;SHT31;18065;55.876;9.830;2023-08-17T09:53:27;24.36;47.01
31443;SHT31;18065;55.876;9.830;2023-08-17T09:55:55;24.40;47.04
31443;SHT31;18065;55.876;9.830;2023-08-17T09:58:25;24.40;46.94
31443;SHT31;18065;55.876;9.830;2023-08-17T10:00:55;24.39;46.95
31443;SHT31;18065;55.876;9.830;2023-08-17T10:03:29;24.44;47.07
31443;SHT31;18065;55.876;9.830;2023-08-17T10:06:04;24.44;46.74
31443;SHT31;18065;55.876;9.830;2023-08-17T10:08:42;24.40;46.60
31443;SHT31;18065;55.876;9.830;2023-08-17T10:11:12;24.42;46.66
31443;SHT31;18065;55.876;9.830;2023-08-17T10:13:47;24.39;46.44
31443;SHT31;18065;55.876;9.830;2023-08-17T10:16:22;24.39;46.58
31443;SHT31;18065;55.876;9.830;2023-08-17T10:19:00;24.39;46.58
31443;SHT31;18065;55.876;9.830;2023-08-17T10:21:37;24.39;46.62
31443;SHT31;18065;55.876;9.830;2023-08-17T10:24:08;24.40;46.51
31443;SHT31;18065;55.876;9.830;2023-08-17T10:26:37;24.43;46.70
31443;SHT31;18065;55.876;9.830;2023-08-17T10:29:07;24.42;46.87
31443;SHT31;18065;55.876;9.830;2023-08-17T10:31:38;24.42;46.89
31443;SHT31;18065;55.876;9.830;2023-08-17T10:34:09;24.42;47.09
31443;SHT31;18065;55.876;9.830;2023-08-17T10:36:38;24.46;47.03
31443;SHT31;18065;55.876;9.830;2023-08-17T10:39:29;24.42;46.55
31443;SHT31;18065;55.876;9.830;2023-08-17T10:42:00;24.42;46.48
31443;SHT31;18065;55.876;9.830;2023-08-17T10:44:43;24.40;46.84
31443;SHT31;18065;55.876;9.830;2023-08-17T10:47:22;24.42;46.84
31443;SHT31;18065;55.876;9.830;2023-08-17T10:49:56;24.43;46.83
31443;SHT31;18065;55.876;9.830;2023-08-17T10:52:30;24.44;47.07
31443;SHT31;18065;55.876;9.830;2023-08-17T10:55:00;24.49;46.95
31443;SHT31;18065;55.876;9.830;2023-08-17T10:57:32;24.47;47.04
31443;SHT31;18065;55.876;9.830;2023-08-17T11:00:17;24.50;46.99
31443;SHT31;18065;55.876;9.830;2023-08-17T11:02:54;24.43;46.73
31443;SHT31;18065;55.876;9.830;2023-08-17T11:05:40;24.47;46.88
31443;SHT31;18065;55.876;9.830;2023-08-17T11:08:11;24.46;46.91
31443;SHT31;18065;55.876;9.830;2023-08-17T11:10:41;24.46;47.13
31443;SHT31;18065;55.876;9.830;2023-08-17T11:13:15;24.47;47.07
31443;SHT31;18065;55.876;9.830;2023-08-17T11:15:44;24.49;47.06
31443;SHT31;18065;55.876;9.830;2023-08-17T11:18:13;24.50;47.08
31443;SHT31;18065;55.876;9.830;2023-08-17T11:20:45;24.49;46.83
31443;SHT31;18065;55.876;9.830;2023-08-17T11:23:14;24.46;46.64
31443;SHT31;18065;55.876;9.830;2023-08-17T11:25:43;24.46;46.67
31443;SHT31;18065;55.876;9.830;2023-08-17T11:28:15;24.46;46.36
31443;SHT31;18065;55.876;9.830;2023-08-17T11:30:44;24.44;46.66
31443;SHT31;18065;55.876;9.830;2023-08-17T11:33:12;24.47;46.70
31443;SHT31;18065;55.876;9.830;2023-08-17T11:35:41;24.49;46.70
31443;SHT31;18065;55.876;9.830;2023-08-17T11:38:14;24.44;46.53
31443;SHT31;18065;55.876;9.830;2023-08-17T11:40:42;24.47;46.65
31443;SHT31;18065;55.876;9.830;2023-08-17T11:43:11;24.49;46.68
31443;SHT31;18065;55.876;9.830;2023-08-17T11:45:40;24.49;46.72
31443;SHT31;18065;55.876;9.830;2023-08-17T11:48:11;24.50;46.82
31443;SHT31;18065;55.876;9.830;2023-08-17T11:50:43;24.53;46.84
31443;SHT31;18065;55.876;9.830;2023-08-17T11:53:15;24.46;46.35
31443;SHT31;18065;55.876;9.830;2023-08-17T11:55:44;24.46;46.36
31443;SHT31;18065;55.876;9.830;2023-08-17T11:58:12;24.44;46.49
31443;SHT31;18065;55.876;9.830;2023-08-17T12:00:43;24.46;46.59
31443;SHT31;18065;55.876;9.830;2023-08-17T12:03:15;24.44;46.66
31443;SHT31;18065;55.876;9.830;2023-08-17T12:05:44;24.40;46.80
31443;SHT31;18065;55.876;9.830;2023-08-17T12:08:17;24.40;46.67
31443;SHT31;18065;55.876;9.830;2023-08-17T12:10:46;24.43;46.66
31443;SHT31;18065;55.876;9.830;2023-08-17T12:13:15;24.43;46.68
31443;SHT31;18065;55.876;9.830;2023-08-17T12:15:44;24.42;46.86
31443;SHT31;18065;55.876;9.830;2023-08-17T12:18:16;24.39;46.99
31443;SHT31;18065;55.876;9.830;2023-08-17T12:20:52;24.40;47.04
31443;SHT31;18065;55.876;9.830;2023-08-17T12:23:24;24.39;46.52
31443;SHT31;18065;55.876;9.830;2023-08-17T12:25:53;24.39;46.75
31443;SHT31;18065;55.876;9.830;2023-08-17T12:28:23;24.37;46.68
31443;SHT31;18065;55.876;9.830;2023-08-17T12:30:59;24.40;46.79
31443;SHT31;18065;55.876;9.830;2023-08-17T12:33:31;24.42;47.15
31443;SHT31;18065;55.876;9.830;2023-08-17T12:35:59;24.44;46.98
31443;SHT31;18065;55.876;9.830;2023-08-17T12:38:32;24.44;46.95
31443;SHT31;18065;55.876;9.830;2023-08-17T12:41:01;24.47;46.92
31443;SHT31;18065;55.876;9.830;2023-08-17T12:43:30;24.49;47.06
31443;SHT31;18065;55.876;9.830;2023-08-17T12:45:58;24.50;47.01
31443;SHT31;18065;55.876;9.830;2023-08-17T12:48:27;24.47;46.96
31443;SHT31;18065;55.876;9.830;2023-08-17T12:50:56;24.47;46.80
31443;SHT31;18065;55.876;9.830;2023-08-17T12:53:25;24.46;46.70
31443;SHT31;18065;55.876;9.830;2023-08-17T12:55:56;24.47;46.80
31443;SHT31;18065;55.876;9.830;2023-08-17T12:58:25;24.46;46.49
31443;SHT31;18065;55.876;9.830;2023-08-17T13:00:53;24.44;46.49
31443;SHT31;18065;55.876;9.830;2023-08-17T13:03:22;24.42;46.52
31443;SHT31;18065;55.876;9.830;2023-08-17T13:05:51;24.44;46.66
31443;SHT31;18065;55.876;9.830;2023-08-17T13:08:20;24.47;46.73
31443;SHT31;18065;55.876;9.830;2023-08-17T13:10:49;24.46;46.81
31443;SHT31;18065;55.876;9.830;2023-08-17T13:13:20;24.43;47.12
31443;SHT31;18065;55.876;9.830;2023-08-17T13:15:49;24.43;46.99
31443;SHT31;18065;55.876;9.830;2023-08-17T13:18:17;24.44;47.03
31443;SHT31;18065;55.876;9.830;2023-08-17T13:20:46;24.44;47.12
31443;SHT31;18065;55.876;9.830;2023-08-17T13:23:15;24.43;47.00
31443;SHT31;18065;55.876;9.830;2023-08-17T13:25:44;24.42;46.96
31443;SHT31;18065;55.876;9.830;2023-08-17T13:28:13;24.40;47.26
31443;SHT31;18065;55.876;9.830;2023-08-17T13:30:44;24.43;47.20
31443;SHT31;18065;55.876;9.830;2023-08-17T13:33:13;24.39;47.36
31443;SHT31;18065;55.876;9.830;2023-08-17T13:35:42;24.42;47.32
31443;SHT31;18065;55.876;9.830;2023-08-17T13:38:10;24.43;47.24
31443;SHT31;18065;55.876;9.830;2023-08-17T13:40:39;24.46;47.21
31443;SHT31;18065;55.876;9.830;2023-08-17T13:43:08;24.43;47.10
31443;SHT31;18065;55.876;9.830;2023-08-17T13:45:38;24.43;47.29
31443;SHT31;18065;55.876;9.830;2023-08-17T13:48:09;24.46;47.21
31443;SHT31;18065;55.876;9.830;2023-08-17T13:50:38;24.44;47.28
31443;SHT31;18065;55.876;9.830;2023-08-17T13:53:07;24.49;47.29
31443;SHT31;18065;55.876;9.830;2023-08-17T13:55:36;24.47;47.10
31443;SHT31;18065;55.876;9.830;2023-08-17T13:58:05;24.46;47.34
31443;SHT31;18065;55.876;9.830;2023-08-17T14:00:36;24.46;47.48
31443;SHT31;18065;55.876;9.830;2023-08-17T14:03:05;24.43;47.58
31443;SHT31;18065;55.876;9.830;2023-08-17T14:05:36;24.43;47.54
31443;SHT31;18065;55.876;9.830;2023-08-17T14:08:05;24.44;47.79
31443;SHT31;18065;55.876;9.830;2023-08-17T14:10:36;24.40;47.74
31443;SHT31;18065;55.876;9.830;2023-08-17T14:13:05;24.40;47.65
31443;SHT31;18065;55.876;9.830;2023-08-17T14:15:34;24.42;47.66
31443;SHT31;18065;55.876;9.830;2023-08-17T14:18:03;24.37;47.81
31443;SHT31;18065;55.876;9.830;2023-08-17T14:20:32;24.37;47.96
31443;SHT31;18065;55.876;9.830;2023-08-17T14:23:04;24.42;48.05
31443;SHT31;18065;55.876;9.830;2023-08-17T14:25:33;24.40;47.97
31443;SHT31;18065;55.876;9.830;2023-08-17T14:28:04;24.43;48.09
31443;SHT31;18065;55.876;9.830;2023-08-17T14:30:33;24.43;48.30
31443;SHT31;18065;55.876;9.830;2023-08-17T14:33:02;24.44;48.14
31443;SHT31;18065;55.876;9.830;2023-08-17T14:35:30;24.43;48.41
31443;SHT31;18065;55.876;9.830;2023-08-17T14:37:59;24.40;48.43
31443;SHT31;18065;55.876;9.830;2023-08-17T14:40:31;24.44;48.42
31443;SHT31;18065;55.876;9.830;2023-08-17T14:42:59;24.47;48.53
31443;SHT31;18065;55.876;9.830;2023-08-17T14:45:28;24.47;48.59
31443;SHT31;18065;55.876;9.830;2023-08-17T14:47:57;24.52;48.35
31443;SHT31;18065;55.876;9.830;2023-08-17T14:50:26;24.49;48.69
31443;SHT31;18065;55.876;9.830;2023-08-17T14:52:54;24.50;48.77
31443;SHT31;18065;55.876;9.830;2023-08-17T14:55:23;24.44;48.56
31443;SHT31;18065;55.876;9.830;2023-08-17T14:57:54;24.42;48.69
31443;SHT31;18065;55.876;9.830;2023-08-17T15:00:23;24.44;48.64
31443;SHT31;18065;55.876;9.830;2023-08-17T15:02:55;24.44;48.67
31443;SHT31;18065;55.876;9.830;2023-08-17T15:05:25;24.47;48.71
31443;SHT31;18065;55.876;9.830;2023-08-17T15:07:54;24.47;48.86
31443;SHT31;18065;55.876;9.830;2023-08-17T15:10:23;24.46;48.80
31443;SHT31;18065;55.876;9.830;2023-08-17T15:12:54;24.46;48.93
31443;SHT31;18065;55.876;9.830;2023-08-17T15:15:23;24.47;49.18
31443;SHT31;18065;55.876;9.830;2023-08-17T15:17:51;24.44;49.18
31443;SHT31;18065;55.876;9.830;2023-08-17T15:20:20;24.46;49.00
31443;SHT31;18065;55.876;9.830;2023-08-17T15:22:49;24.44;48.99
31443;SHT31;18065;55.876;9.830;2023-08-17T15:25:18;24.47;49.13
31443;SHT31;18065;55.876;9.830;2023-08-17T15:27:46;24.46;49.38
31443;SHT31;18065;55.876;9.830;2023-08-17T15:30:19;24.47;49.24
31443;SHT31;18065;55.876;9.830;2023-08-17T15:32:48;24.44;49.38
31443;SHT31;18065;55.876;9.830;2023-08-17T15:35:18;24.49;49.31
31443;SHT31;18065;55.876;9.830;2023-08-17T15:37:47;24.46;49.29
31443;SHT31;18065;55.876;9.830;2023-08-17T15:40:16;24.43;49.20
31443;SHT31;18065;55.876;9.830;2023-08-17T15:42:45;24.46;49.12
31443;SHT31;18065;55.876;9.830;2023-08-17T15:45:14;24.43;49.26
31443;SHT31;18065;55.876;9.830;2023-08-17T15:47:46;24.44;49.21